sensor_id;sensor_type;location;lat;lon;timestamp;temperature;humidity
69009;SHT31;56065;52.472;13.380;2022-09-03T00:00:15;14.87;61.64
69009;SHT31;56065;52.472;13.380;2022-09-03T00:03:00;14.78;62.05
69009;SHT31;56065;52.472;13.380;2022-09-03T00:05:50;14.80;61.81
69009;SHT31;56065;52.472;13.380;2022-09-03T00:09:00;14.73;61.81
69009;SHT31;56065;52.472;13.380;2022-09-03T00:12:35;14.67;62.43
69009;SHT31;56065;52.472;13.380;2022-09-03T00:14:38;14.71;62.06
69009;SHT31;56065;52.472;13.380;2022-09-03T00:19:40;14.70;62.51
69009;SHT31;56065;52.472;13.380;2022-09-03T00:22:12;14.68;62.39
69009;SHT31;56065;52.472;13.380;2022-09-03T00:24:41;14.67;62.23
69009;SHT31;56065;52.472;13.380;2022-09-03T00:27:14;14.61;62.47
69009;SHT31;56065;52.472;13.380;2022-09-03T00:29:55;14.61;62.47
69009;SHT31;56065;52.472;13.380;2022-09-03T00:35:24;14.56;63.60
69009;SHT31;56065;52.472;13.380;2022-09-03T00:37:52;14.50;63.43
69009;SHT31;56065;52.472;13.380;2022-09-03T00:46:10;14.47;63.06
69009;SHT31;56065;52.472;13.380;2022-09-03T00:51:55;14.40;63.48
69009;SHT31;56065;52.472;13.380;2022-09-03T01:00:14;14.32;63.96
69009;SHT31;56065;52.472;13.380;2022-09-03T01:08:42;14.19;63.91
69009;SHT31;56065;52.472;13.380;2022-09-03T01:16:55;14.16;64.93
69009;SHT31;56065;52.472;13.380;2022-09-03T01:28:01;14.13;64.27
69009;SHT31;56065;52.472;13.380;2022-09-03T01:30:32;14.16;64.39
69009;SHT31;56065;52.472;13.380;2022-09-03T01:35:39;14.10;64.10
69009;SHT31;56065;52.472;13.380;2022-09-03T01:38:36;14.10;64.34
69009;SHT31;56065;52.472;13.380;2022-09-03T01:46:36;14.05;64.28
69009;SHT31;56065;52.472;13.380;2022-09-03T01:49:17;13.98;64.63
69009;SHT31;56065;52.472;13.380;2022-09-03T01:51:55;13.99;65.06
69009;SHT31;56065;52.472;13.380;2022-09-03T01:57:22;13.90;64.98
69009;SHT31;56065;52.472;13.380;2022-09-03T02:00:00;13.89;64.79
69009;SHT31;56065;52.472;13.380;2022-09-03T02:02:27;13.75;65.37
69009;SHT31;56065;52.472;13.380;2022-09-03T02:04:59;13.79;65.27
69009;SHT31;56065;52.472;13.380;2022-09-03T02:07:30;13.78;65.30
69009;SHT31;56065;52.472;13.380;2022-09-03T02:09:58;13.78;65.87
69009;SHT31;56065;52.472;13.380;2022-09-03T02:12:24;13.74;65.16
69009;SHT31;56065;52.472;13.380;2022-09-03T02:14:50;13.72;65.21
69009;SHT31;56065;52.472;13.380;2022-09-03T02:17:15;13.74;65.29
69009;SHT31;56065;52.472;13.380;2022-09-03T02:19:41;13.74;65.32
69009;SHT31;56065;52.472;13.380;2022-09-03T02:22:06;13.71;65.37
69009;SHT31;56065;52.472;13.380;2022-09-03T02:24:32;13.68;65.28
69009;SHT31;56065;52.472;13.380;2022-09-03T02:26:57;13.64;65.90
69009;SHT31;56065;52.472;13.380;2022-09-03T02:29:23;13.61;65.98
69009;SHT31;56065;52.472;13.380;2022-09-03T02:31:49;13.59;65.90
69009;SHT31;56065;52.472;13.380;2022-09-03T02:34:15;13.59;65.85
69009;SHT31;56065;52.472;13.380;2022-09-03T02:36:44;13.59;65.92
69009;SHT31;56065;52.472;13.380;2022-09-03T02:39:11;13.57;66.00
69009;SHT31;56065;52.472;13.380;2022-09-03T02:41:37;13.53;66.31
69009;SHT31;56065;52.472;13.380;2022-09-03T02:46:39;13.51;66.03
69009;SHT31;56065;52.472;13.380;2022-09-03T02:49:05;13.48;66.21
69009;SHT31;56065;52.472;13.380;2022-09-03T02:51:35;13.45;66.44
69009;SHT31;56065;52.472;13.380;2022-09-03T02:54:01;13.43;66.31
69009;SHT31;56065;52.472;13.380;2022-09-03T02:56:27;13.40;67.00
69009;SHT31;56065;52.472;13.380;2022-09-03T02:58:55;13.41;66.28
69009;SHT31;56065;52.472;13.380;2022-09-03T03:01:20;13.34;66.94
69009;SHT31;56065;52.472;13.380;2022-09-03T03:03:46;13.25;66.98
69009;SHT31;56065;52.472;13.380;2022-09-03T03:06:11;13.27;67.02
69009;SHT31;56065;52.472;13.380;2022-09-03T03:08:39;13.30;66.87
69009;SHT31;56065;52.472;13.380;2022-09-03T03:11:04;13.28;66.78
69009;SHT31;56065;52.472;13.380;2022-09-03T03:13:31;13.23;67.03
69009;SHT31;56065;52.472;13.380;2022-09-03T03:15:58;13.18;67.28
69009;SHT31;56065;52.472;13.380;2022-09-03T03:18:24;13.17;67.11
69009;SHT31;56065;52.472;13.380;2022-09-03T03:20:49;13.14;67.05
69009;SHT31;56065;52.472;13.380;2022-09-03T03:23:15;13.10;67.47
69009;SHT31;56065;52.472;13.380;2022-09-03T03:25:41;13.07;67.32
69009;SHT31;56065;52.472;13.380;2022-09-03T03:28:06;13.04;67.61
69009;SHT31;56065;52.472;13.380;2022-09-03T03:30:33;13.07;67.71
69009;SHT31;56065;52.472;13.380;2022-09-03T03:32:58;13.02;67.62
69009;SHT31;56065;52.472;13.380;2022-09-03T03:35:24;13.03;67.54
69009;SHT31;56065;52.472;13.380;2022-09-03T03:37:50;13.04;67.42
69009;SHT31;56065;52.472;13.380;2022-09-03T03:40:15;13.02;67.53
69009;SHT31;56065;52.472;13.380;2022-09-03T03:42:41;12.97;67.67
69009;SHT31;56065;52.472;13.380;2022-09-03T03:45:07;12.97;67.43
69009;SHT31;56065;52.472;13.380;2022-09-03T03:47:34;12.92;67.70
69009;SHT31;56065;52.472;13.380;2022-09-03T03:50:00;12.94;67.62
69009;SHT31;56065;52.472;13.380;2022-09-03T03:52:25;12.94;67.81
69009;SHT31;56065;52.472;13.380;2022-09-03T03:54:52;12.93;67.80
69009;SHT31;56065;52.472;13.380;2022-09-03T03:57:18;12.93;68.02
69009;SHT31;56065;52.472;13.380;2022-09-03T03:59:45;12.96;67.66
69009;SHT31;56065;52.472;13.380;2022-09-03T04:02:11;12.99;67.89
69009;SHT31;56065;52.472;13.380;2022-09-03T04:04:36;13.07;67.76
69009;SHT31;56065;52.472;13.380;2022-09-03T04:07:02;13.08;67.91
69009;SHT31;56065;52.472;13.380;2022-09-03T04:09:27;13.07;67.50
69009;SHT31;56065;52.472;13.380;2022-09-03T04:11:53;13.04;67.75
69009;SHT31;56065;52.472;13.380;2022-09-03T04:14:18;13.07;67.51
69009;SHT31;56065;52.472;13.380;2022-09-03T04:16:44;13.00;67.54
69009;SHT31;56065;52.472;13.380;2022-09-03T04:19:11;13.00;67.73
69009;SHT31;56065;52.472;13.380;2022-09-03T04:21:37;13.00;67.61
69009;SHT31;56065;52.472;13.380;2022-09-03T04:24:03;12.99;67.66
69009;SHT31;56065;52.472;13.380;2022-09-03T04:26:30;12.96;67.85
69009;SHT31;56065;52.472;13.380;2022-09-03T04:28:56;12.92;67.99
69009;SHT31;56065;52.472;13.380;2022-09-03T04:31:22;12.93;68.23
69009;SHT31;56065;52.472;13.380;2022-09-03T04:33:48;13.02;68.51
69009;SHT31;56065;52.472;13.380;2022-09-03T04:36:21;13.13;68.07
69009;SHT31;56065;52.472;13.380;2022-09-03T04:38:49;13.21;67.66
69009;SHT31;56065;52.472;13.380;2022-09-03T04:41:23;13.28;67.87
69009;SHT31;56065;52.472;13.380;2022-09-03T04:43:55;13.40;67.70
69009;SHT31;56065;52.472;13.380;2022-09-03T04:46:23;13.54;67.10
69009;SHT31;56065;52.472;13.380;2022-09-03T04:48:51;13.58;67.21
69009;SHT31;56065;52.472;13.380;2022-09-03T04:51:22;13.58;67.10
69009;SHT31;56065;52.472;13.380;2022-09-03T04:53:53;13.69;67.42
69009;SHT31;56065;52.472;13.380;2022-09-03T04:56:26;13.75;67.04
69009;SHT31;56065;52.472;13.380;2022-09-03T04:58:56;13.89;66.69
69009;SHT31;56065;52.472;13.380;2022-09-03T05:01:24;13.93;67.10
69009;SHT31;56065;52.472;13.380;2022-09-03T05:03:49;13.99;66.58
69009;SHT31;56065;52.472;13.380;2022-09-03T05:06:18;14.08;66.51
69009;SHT31;56065;52.472;13.380;2022-09-03T05:08:51;14.13;67.23
69009;SHT31;56065;52.472;13.380;2022-09-03T05:11:17;14.23;66.35
69009;SHT31;56065;52.472;13.380;2022-09-03T05:13:46;14.34;66.05
69009;SHT31;56065;52.472;13.380;2022-09-03T05:16:12;14.40;66.07
69009;SHT31;56065;52.472;13.380;2022-09-03T05:18:37;14.50;65.77
69009;SHT31;56065;52.472;13.380;2022-09-03T05:21:06;14.50;65.85
69009;SHT31;56065;52.472;13.380;2022-09-03T05:23:35;14.56;65.66
69009;SHT31;56065;52.472;13.380;2022-09-03T05:26:03;14.68;65.63
69009;SHT31;56065;52.472;13.380;2022-09-03T05:28:33;14.81;65.22
69009;SHT31;56065;52.472;13.380;2022-09-03T05:31:08;14.88;65.29
69009;SHT31;56065;52.472;13.380;2022-09-03T05:33:38;15.02;64.79
69009;SHT31;56065;52.472;13.380;2022-09-03T05:36:05;15.18;64.67
69009;SHT31;56065;52.472;13.380;2022-09-03T05:38:31;15.25;64.37
69009;SHT31;56065;52.472;13.380;2022-09-03T05:41:01;15.34;64.52
69009;SHT31;56065;52.472;13.380;2022-09-03T05:43:27;15.34;64.33
69009;SHT31;56065;52.472;13.380;2022-09-03T05:46:07;15.49;63.92
69009;SHT31;56065;52.472;13.380;2022-09-03T05:48:34;15.98;63.42
69009;SHT31;56065;52.472;13.380;2022-09-03T05:51:06;16.21;62.03
69009;SHT31;56065;52.472;13.380;2022-09-03T05:53:34;16.36;62.94
69009;SHT31;56065;52.472;13.380;2022-09-03T05:56:02;16.27;61.81
69009;SHT31;56065;52.472;13.380;2022-09-03T05:58:32;15.96;62.54
69009;SHT31;56065;52.472;13.380;2022-09-03T06:00:58;15.79;63.09
69009;SHT31;56065;52.472;13.380;2022-09-03T06:03:24;15.71;63.17
69009;SHT31;56065;52.472;13.380;2022-09-03T06:05:53;15.76;63.55
69009;SHT31;56065;52.472;13.380;2022-09-03T06:08:20;15.96;63.42
69009;SHT31;56065;52.472;13.380;2022-09-03T06:10:45;16.04;62.92
69009;SHT31;56065;52.472;13.380;2022-09-03T06:13:11;16.01;63.27
69009;SHT31;56065;52.472;13.380;2022-09-03T06:15:37;15.96;63.05
69009;SHT31;56065;52.472;13.380;2022-09-03T06:18:03;15.94;63.09
69009;SHT31;56065;52.472;13.380;2022-09-03T06:20:28;16.07;63.27
69009;SHT31;56065;52.472;13.380;2022-09-03T06:22:55;16.21;63.01
69009;SHT31;56065;52.472;13.380;2022-09-03T06:25:20;16.14;62.69
69009;SHT31;56065;52.472;13.380;2022-09-03T06:27:46;16.11;63.05
69009;SHT31;56065;52.472;13.380;2022-09-03T06:30:12;16.11;63.35
69009;SHT31;56065;52.472;13.380;2022-09-03T06:32:48;16.07;63.03
69009;SHT31;56065;52.472;13.380;2022-09-03T06:35:17;16.03;63.07
69009;SHT31;56065;52.472;13.380;2022-09-03T06:37:42;16.07;63.21
69009;SHT31;56065;52.472;13.380;2022-09-03T06:40:08;16.05;63.47
69009;SHT31;56065;52.472;13.380;2022-09-03T06:42:41;16.13;63.55
69009;SHT31;56065;52.472;13.380;2022-09-03T06:45:09;16.01;63.38
69009;SHT31;56065;52.472;13.380;2022-09-03T06:47:35;16.15;63.79
69009;SHT31;56065;52.472;13.380;2022-09-03T06:50:01;16.34;63.21
69009;SHT31;56065;52.472;13.380;2022-09-03T06:52:29;16.36;63.30
69009;SHT31;56065;52.472;13.380;2022-09-03T06:54:55;16.52;62.68
69009;SHT31;56065;52.472;13.380;2022-09-03T06:57:20;16.62;62.17
69009;SHT31;56065;52.472;13.380;2022-09-03T06:59:45;16.71;62.18
69009;SHT31;56065;52.472;13.380;2022-09-03T07:02:11;16.79;61.95
69009;SHT31;56065;52.472;13.380;2022-09-03T07:04:36;16.89;61.53
69009;SHT31;56065;52.472;13.380;2022-09-03T07:07:02;17.03;61.81
69009;SHT31;56065;52.472;13.380;2022-09-03T07:09:27;17.13;60.91
69009;SHT31;56065;52.472;13.380;2022-09-03T07:11:53;17.27;60.77
69009;SHT31;56065;52.472;13.380;2022-09-03T07:14:20;17.47;60.60
69009;SHT31;56065;52.472;13.380;2022-09-03T07:16:47;17.65;60.58
69009;SHT31;56065;52.472;13.380;2022-09-03T07:19:12;17.89;59.92
69009;SHT31;56065;52.472;13.380;2022-09-03T07:21:38;18.17;59.30
69009;SHT31;56065;52.472;13.380;2022-09-03T07:24:07;18.25;58.87
69009;SHT31;56065;52.472;13.380;2022-09-03T07:26:37;18.59;58.81
69009;SHT31;56065;52.472;13.380;2022-09-03T07:29:04;18.77;57.78
69009;SHT31;56065;52.472;13.380;2022-09-03T07:31:37;18.78;58.90
69009;SHT31;56065;52.472;13.380;2022-09-03T07:34:08;18.91;57.77
69009;SHT31;56065;52.472;13.380;2022-09-03T07:36:41;18.94;57.29
69009;SHT31;56065;52.472;13.380;2022-09-03T07:39:08;19.05;56.98
69009;SHT31;56065;52.472;13.380;2022-09-03T07:41:34;19.05;57.08
69009;SHT31;56065;52.472;13.380;2022-09-03T07:43:59;19.07;57.37
69009;SHT31;56065;52.472;13.380;2022-09-03T07:46:31;19.14;57.79
69009;SHT31;56065;52.472;13.380;2022-09-03T07:48:58;19.18;57.91
69009;SHT31;56065;52.472;13.380;2022-09-03T07:51:28;19.24;57.62
69009;SHT31;56065;52.472;13.380;2022-09-03T07:53:56;19.42;57.09
69009;SHT31;56065;52.472;13.380;2022-09-03T07:56:22;19.52;56.83
69009;SHT31;56065;52.472;13.380;2022-09-03T07:58:48;19.59;56.92
69009;SHT31;56065;52.472;13.380;2022-09-03T08:01:17;19.76;56.31
69009;SHT31;56065;52.472;13.380;2022-09-03T08:03:45;19.85;55.46
69009;SHT31;56065;52.472;13.380;2022-09-03T08:06:11;20.03;55.31
69009;SHT31;56065;52.472;13.380;2022-09-03T08:08:37;20.23;55.22
69009;SHT31;56065;52.472;13.380;2022-09-03T08:13:35;21.05;54.35
69009;SHT31;56065;52.472;13.380;2022-09-03T08:16:00;21.45;53.16
69009;SHT31;56065;52.472;13.380;2022-09-03T08:18:26;21.80;52.68
69009;SHT31;56065;52.472;13.380;2022-09-03T08:20:51;22.39;51.37
69009;SHT31;56065;52.472;13.380;2022-09-03T08:23:16;23.07;50.17
69009;SHT31;56065;52.472;13.380;2022-09-03T08:25:42;23.75;48.07
69009;SHT31;56065;52.472;13.380;2022-09-03T08:28:08;24.98;46.80
69009;SHT31;56065;52.472;13.380;2022-09-03T08:30:35;26.67;44.61
69009;SHT31;56065;52.472;13.380;2022-09-03T08:33:01;27.81;41.84
69009;SHT31;56065;52.472;13.380;2022-09-03T08:35:29;29.57;40.31
69009;SHT31;56065;52.472;13.380;2022-09-03T08:37:56;31.11;37.65
69009;SHT31;56065;52.472;13.380;2022-09-03T08:40:21;31.50;35.50
69009;SHT31;56065;52.472;13.380;2022-09-03T08:42:59;32.71;34.82
69009;SHT31;56065;52.472;13.380;2022-09-03T08:45:32;33.39;33.39
69009;SHT31;56065;52.472;13.380;2022-09-03T08:48:04;34.04;34.09
69009;SHT31;56065;52.472;13.380;2022-09-03T08:50:37;34.28;32.86
69009;SHT31;56065;52.472;13.380;2022-09-03T08:53:16;34.78;31.95
69009;SHT31;56065;52.472;13.380;2022-09-03T08:58:17;35.64;30.96
69009;SHT31;56065;52.472;13.380;2022-09-03T09:06:42;37.00;30.10
69009;SHT31;56065;52.472;13.380;2022-09-03T09:11:47;37.53;28.61
69009;SHT31;56065;52.472;13.380;2022-09-03T09:20:05;38.37;28.24
69009;SHT31;56065;52.472;13.380;2022-09-03T09:22:40;38.57;27.38
69009;SHT31;56065;52.472;13.380;2022-09-03T09:25:10;38.80;26.97
69009;SHT31;56065;52.472;13.380;2022-09-03T09:28:10;39.00;27.47
69009;SHT31;56065;52.472;13.380;2022-09-03T09:30:30;39.15;27.24
69009;SHT31;56065;52.472;13.380;2022-09-03T09:32:55;39.37;27.30
69009;SHT31;56065;52.472;13.380;2022-09-03T09:35:22;39.84;26.82
69009;SHT31;56065;52.472;13.380;2022-09-03T09:37:57;39.75;26.31
69009;SHT31;56065;52.472;13.380;2022-09-03T09:40:32;40.61;25.52
69009;SHT31;56065;52.472;13.380;2022-09-03T09:43:13;40.43;25.63
69009;SHT31;56065;52.472;13.380;2022-09-03T09:45:42;40.21;25.23
69009;SHT31;56065;52.472;13.380;2022-09-03T09:48:14;39.18;25.59
69009;SHT31;56065;52.472;13.380;2022-09-03T09:50:41;39.52;25.91
69009;SHT31;56065;52.472;13.380;2022-09-03T09:53:09;40.24;25.24
69009;SHT31;56065;52.472;13.380;2022-09-03T09:56:08;39.85;25.62
69009;SHT31;56065;52.472;13.380;2022-09-03T09:58:43;40.06;25.48
69009;SHT31;56065;52.472;13.380;2022-09-03T10:01:13;39.69;25.09
69009;SHT31;56065;52.472;13.380;2022-09-03T10:03:55;39.45;25.64
69009;SHT31;56065;52.472;13.380;2022-09-03T10:06:28;39.88;25.52
69009;SHT31;56065;52.472;13.380;2022-09-03T10:09:18;40.03;25.55
69009;SHT31;56065;52.472;13.380;2022-09-03T10:11:49;39.86;24.28
69009;SHT31;56065;52.472;13.380;2022-09-03T10:14:26;39.18;24.36
69009;SHT31;56065;52.472;13.380;2022-09-03T10:17:04;38.67;24.32
69009;SHT31;56065;52.472;13.380;2022-09-03T10:20:00;37.84;25.55
69009;SHT31;56065;52.472;13.380;2022-09-03T10:22:53;37.23;26.63
69009;SHT31;56065;52.472;13.380;2022-09-03T10:25:20;35.97;26.49
69009;SHT31;56065;52.472;13.380;2022-09-03T10:27:45;34.82;27.30
69009;SHT31;56065;52.472;13.380;2022-09-03T10:30:12;33.03;29.07
69009;SHT31;56065;52.472;13.380;2022-09-03T10:33:09;31.98;30.63
69009;SHT31;56065;52.472;13.380;2022-09-03T10:35:37;30.98;31.66
69009;SHT31;56065;52.472;13.380;2022-09-03T10:38:19;29.84;33.06
69009;SHT31;56065;52.472;13.380;2022-09-03T10:41:32;29.45;33.69
69009;SHT31;56065;52.472;13.380;2022-09-03T10:44:13;28.51;33.84
69009;SHT31;56065;52.472;13.380;2022-09-03T10:47:02;27.88;35.56
69009;SHT31;56065;52.472;13.380;2022-09-03T10:55:12;27.43;35.69
69009;SHT31;56065;52.472;13.380;2022-09-03T11:00:23;26.54;36.79
69009;SHT31;56065;52.472;13.380;2022-09-03T11:05:23;26.59;38.67
69009;SHT31;56065;52.472;13.380;2022-09-03T11:10:40;27.10;36.47
69009;SHT31;56065;52.472;13.380;2022-09-03T11:13:49;27.20;34.46
69009;SHT31;56065;52.472;13.380;2022-09-03T11:16:25;28.63;34.12
69009;SHT31;56065;52.472;13.380;2022-09-03T11:18:56;29.30;33.52
69009;SHT31;56065;52.472;13.380;2022-09-03T11:21:26;28.69;33.51
69009;SHT31;56065;52.472;13.380;2022-09-03T11:26:40;29.43;32.81
69009;SHT31;56065;52.472;13.380;2022-09-03T11:29:22;31.59;31.45
69009;SHT31;56065;52.472;13.380;2022-09-03T11:32:40;31.07;30.83
69009;SHT31;56065;52.472;13.380;2022-09-03T11:34:58;30.08;31.82
69009;SHT31;56065;52.472;13.380;2022-09-03T11:37:28;29.23;32.46
69009;SHT31;56065;52.472;13.380;2022-09-03T11:40:09;29.21;33.06
69009;SHT31;56065;52.472;13.380;2022-09-03T11:42:42;29.65;32.89
69009;SHT31;56065;52.472;13.380;2022-09-03T11:45:43;31.16;30.17
69009;SHT31;56065;52.472;13.380;2022-09-03T11:48:47;33.21;29.51
69009;SHT31;56065;52.472;13.380;2022-09-03T11:54:22;31.56;29.49
69009;SHT31;56065;52.472;13.380;2022-09-03T11:56:49;30.63;29.90
69009;SHT31;56065;52.472;13.380;2022-09-03T11:59:22;29.85;30.99
69009;SHT31;56065;52.472;13.380;2022-09-03T12:02:28;29.55;31.13
69009;SHT31;56065;52.472;13.380;2022-09-03T12:10:48;30.19;30.13
69009;SHT31;56065;52.472;13.380;2022-09-03T12:18:21;34.05;27.39
69009;SHT31;56065;52.472;13.380;2022-09-03T12:23:41;34.24;27.69
69009;SHT31;56065;52.472;13.380;2022-09-03T12:26:12;33.63;26.70
69009;SHT31;56065;52.472;13.380;2022-09-03T12:28:43;32.51;27.52
69009;SHT31;56065;52.472;13.380;2022-09-03T12:31:24;31.41;29.02
69009;SHT31;56065;52.472;13.380;2022-09-03T12:33:58;31.50;29.39
69009;SHT31;56065;52.472;13.380;2022-09-03T12:36:26;31.50;29.46
69009;SHT31;56065;52.472;13.380;2022-09-03T12:39:17;30.63;29.76
69009;SHT31;56065;52.472;13.380;2022-09-03T12:44:24;31.31;28.62
69009;SHT31;56065;52.472;13.380;2022-09-03T12:46:59;30.57;29.96
69009;SHT31;56065;52.472;13.380;2022-09-03T12:49:24;29.65;30.21
69009;SHT31;56065;52.472;13.380;2022-09-03T12:51:50;28.69;31.45
69009;SHT31;56065;52.472;13.380;2022-09-03T12:54:15;28.39;32.67
69009;SHT31;56065;52.472;13.380;2022-09-03T12:56:45;29.14;33.48
69009;SHT31;56065;52.472;13.380;2022-09-03T12:59:16;30.74;31.09
69009;SHT31;56065;52.472;13.380;2022-09-03T13:01:54;32.00;30.28
69009;SHT31;56065;52.472;13.380;2022-09-03T13:04:30;32.55;27.77
69009;SHT31;56065;52.472;13.380;2022-09-03T13:07:28;31.77;29.33
69009;SHT31;56065;52.472;13.380;2022-09-03T13:10:00;31.43;29.51
69009;SHT31;56065;52.472;13.380;2022-09-03T13:12:33;31.16;29.38
69009;SHT31;56065;52.472;13.380;2022-09-03T13:15:08;30.65;30.68
69009;SHT31;56065;52.472;13.380;2022-09-03T13:17:52;29.89;31.14
69009;SHT31;56065;52.472;13.380;2022-09-03T13:23:39;29.35;32.01
69009;SHT31;56065;52.472;13.380;2022-09-03T13:29:42;28.21;32.71
69009;SHT31;56065;52.472;13.380;2022-09-03T13:32:27;27.58;33.54
69009;SHT31;56065;52.472;13.380;2022-09-03T13:37:50;26.81;34.41
69009;SHT31;56065;52.472;13.380;2022-09-03T13:40:30;26.48;34.85
69009;SHT31;56065;52.472;13.380;2022-09-03T13:45:57;25.82;36.33
69009;SHT31;56065;52.472;13.380;2022-09-03T13:48:44;25.62;35.42
69009;SHT31;56065;52.472;13.380;2022-09-03T13:51:42;25.92;35.25
69009;SHT31;56065;52.472;13.380;2022-09-03T13:54:19;25.67;35.01
69009;SHT31;56065;52.472;13.380;2022-09-03T13:59:30;25.25;36.39
69009;SHT31;56065;52.472;13.380;2022-09-03T14:02:27;24.92;36.46
69009;SHT31;56065;52.472;13.380;2022-09-03T14:13:45;26.27;36.05
69009;SHT31;56065;52.472;13.380;2022-09-03T14:16:27;26.54;35.78
69009;SHT31;56065;52.472;13.380;2022-09-03T14:19:04;26.21;35.99
69009;SHT31;56065;52.472;13.380;2022-09-03T14:21:39;26.18;35.67
69009;SHT31;56065;52.472;13.380;2022-09-03T14:24:15;25.83;36.31
69009;SHT31;56065;52.472;13.380;2022-09-03T14:26:55;25.79;35.85
69009;SHT31;56065;52.472;13.380;2022-09-03T14:29:32;25.79;36.16
69009;SHT31;56065;52.472;13.380;2022-09-03T14:35:04;24.87;37.07
69009;SHT31;56065;52.472;13.380;2022-09-03T14:43:28;23.96;38.41
69009;SHT31;56065;52.472;13.380;2022-09-03T14:49:14;25.46;37.35
69009;SHT31;56065;52.472;13.380;2022-09-03T14:52:11;26.72;35.67
69009;SHT31;56065;52.472;13.380;2022-09-03T15:00:15;28.97;33.63
69009;SHT31;56065;52.472;13.380;2022-09-03T15:03:16;29.08;32.26
69009;SHT31;56065;52.472;13.380;2022-09-03T15:11:22;27.22;34.44
69009;SHT31;56065;52.472;13.380;2022-09-03T15:14:01;26.85;34.57
69009;SHT31;56065;52.472;13.380;2022-09-03T15:16:35;26.81;35.26
69009;SHT31;56065;52.472;13.380;2022-09-03T15:30:08;24.85;37.34
69009;SHT31;56065;52.472;13.380;2022-09-03T15:35:06;24.35;37.84
69009;SHT31;56065;52.472;13.380;2022-09-03T15:37:56;24.08;38.71
69009;SHT31;56065;52.472;13.380;2022-09-03T15:40:47;23.90;38.75
69009;SHT31;56065;52.472;13.380;2022-09-03T15:43:21;23.82;39.14
69009;SHT31;56065;52.472;13.380;2022-09-03T15:45:54;23.66;39.63
69009;SHT31;56065;52.472;13.380;2022-09-03T15:48:33;23.54;39.46
69009;SHT31;56065;52.472;13.380;2022-09-03T15:51:19;23.41;39.91
69009;SHT31;56065;52.472;13.380;2022-09-03T15:56:34;23.26;40.43
69009;SHT31;56065;52.472;13.380;2022-09-03T15:59:10;23.21;40.54
69009;SHT31;56065;52.472;13.380;2022-09-03T16:07:31;23.23;40.35
69009;SHT31;56065;52.472;13.380;2022-09-03T16:10:17;23.54;40.24
69009;SHT31;56065;52.472;13.380;2022-09-03T16:15:19;23.75;39.85
69009;SHT31;56065;52.472;13.380;2022-09-03T16:20:53;23.38;40.04
69009;SHT31;56065;52.472;13.380;2022-09-03T16:23:48;23.17;40.93
69009;SHT31;56065;52.472;13.380;2022-09-03T16:26:42;23.07;40.80
69009;SHT31;56065;52.472;13.380;2022-09-03T16:29:17;22.92;41.32
69009;SHT31;56065;52.472;13.380;2022-09-03T16:48:45;22.57;41.67
69009;SHT31;56065;52.472;13.380;2022-09-03T16:57:01;22.44;42.60
69009;SHT31;56065;52.472;13.380;2022-09-03T16:59:54;22.38;42.72
69009;SHT31;56065;52.472;13.380;2022-09-03T17:05:29;22.19;43.20
69009;SHT31;56065;52.472;13.380;2022-09-03T17:08:13;22.11;43.26
69009;SHT31;56065;52.472;13.380;2022-09-03T17:10:51;22.08;43.49
69009;SHT31;56065;52.472;13.380;2022-09-03T17:21:31;21.67;44.62
69009;SHT31;56065;52.472;13.380;2022-09-03T17:27:04;21.58;44.75
69009;SHT31;56065;52.472;13.380;2022-09-03T17:35:26;21.33;45.47
69009;SHT31;56065;52.472;13.380;2022-09-03T17:49:02;20.95;46.20
69009;SHT31;56065;52.472;13.380;2022-09-03T17:51:40;20.85;46.59
69009;SHT31;56065;52.472;13.380;2022-09-03T17:54:31;20.79;46.90
69009;SHT31;56065;52.472;13.380;2022-09-03T17:59:42;20.61;47.17
69009;SHT31;56065;52.472;13.380;2022-09-03T18:07:23;20.45;47.96
69009;SHT31;56065;52.472;13.380;2022-09-03T18:15:25;20.37;48.11
69009;SHT31;56065;52.472;13.380;2022-09-03T18:18:09;20.36;48.54
69009;SHT31;56065;52.472;13.380;2022-09-03T18:20:42;20.31;48.50
69009;SHT31;56065;52.472;13.380;2022-09-03T18:23:51;20.38;48.62
69009;SHT31;56065;52.472;13.380;2022-09-03T18:26:43;20.40;47.79
69009;SHT31;56065;52.472;13.380;2022-09-03T18:30:14;20.45;47.73
69009;SHT31;56065;52.472;13.380;2022-09-03T18:32:39;20.41;47.81
69009;SHT31;56065;52.472;13.380;2022-09-03T18:35:24;20.44;47.55
69009;SHT31;56065;52.472;13.380;2022-09-03T18:38:12;20.38;47.90
69009;SHT31;56065;52.472;13.380;2022-09-03T18:41:05;20.43;47.51
69009;SHT31;56065;52.472;13.380;2022-09-03T18:44:03;20.44;47.16
69009;SHT31;56065;52.472;13.380;2022-09-03T18:46:59;20.38;47.65
69009;SHT31;56065;52.472;13.380;2022-09-03T19:02:28;20.26;47.48
69009;SHT31;56065;52.472;13.380;2022-09-03T19:05:17;20.30;47.45
69009;SHT31;56065;52.472;13.380;2022-09-03T19:08:12;20.24;47.44
69009;SHT31;56065;52.472;13.380;2022-09-03T19:11:02;20.24;47.41
69009;SHT31;56065;52.472;13.380;2022-09-03T19:13:50;20.24;47.44
69009;SHT31;56065;52.472;13.380;2022-09-03T19:25:14;20.06;47.61
69009;SHT31;56065;52.472;13.380;2022-09-03T19:28:14;20.03;47.73
69009;SHT31;56065;52.472;13.380;2022-09-03T19:37:17;20.00;47.88
69009;SHT31;56065;52.472;13.380;2022-09-03T19:50:02;19.92;48.16
69009;SHT31;56065;52.472;13.380;2022-09-03T19:53:00;19.94;48.45
69009;SHT31;56065;52.472;13.380;2022-09-03T19:55:53;19.92;48.35
69009;SHT31;56065;52.472;13.380;2022-09-03T19:58:48;19.90;48.45
69009;SHT31;56065;52.472;13.380;2022-09-03T20:01:35;19.98;48.40
69009;SHT31;56065;52.472;13.380;2022-09-03T20:04:26;19.98;48.41
69009;SHT31;56065;52.472;13.380;2022-09-03T20:07:12;19.98;48.27
69009;SHT31;56065;52.472;13.380;2022-09-03T20:09:58;20.01;48.92
69009;SHT31;56065;52.472;13.380;2022-09-03T20:12:53;20.04;48.39
69009;SHT31;56065;52.472;13.380;2022-09-03T20:15:22;20.03;48.75
69009;SHT31;56065;52.472;13.380;2022-09-03T20:18:05;19.98;48.44
69009;SHT31;56065;52.472;13.380;2022-09-03T20:21:14;19.97;48.95
69009;SHT31;56065;52.472;13.380;2022-09-03T20:29:27;19.94;49.25
69009;SHT31;56065;52.472;13.380;2022-09-03T20:35:16;19.83;49.07
69009;SHT31;56065;52.472;13.380;2022-09-03T20:51:25;19.62;49.43
69009;SHT31;56065;52.472;13.380;2022-09-03T20:56:44;19.61;49.34
69009;SHT31;56065;52.472;13.380;2022-09-03T21:02:00;19.59;49.42
69009;SHT31;56065;52.472;13.380;2022-09-03T21:04:46;19.51;49.95
69009;SHT31;56065;52.472;13.380;2022-09-03T21:10:09;19.42;50.03
69009;SHT31;56065;52.472;13.380;2022-09-03T21:12:56;19.42;50.09
69009;SHT31;56065;52.472;13.380;2022-09-03T21:21:13;19.25;50.11